Time;durP1;ratioP1;P1;durP2;ratioP2;P2;SDS_P1;SDS_P2;PMS_P1;PMS_P2;Temp;Humidity;BMP_temperature;BMP_pressure;BME280_temperature;BME280_humidity;BME280_pressure;Samples;Min_cycle;Max_cycle;Signal;HPM_P1;HPM_P2
2021/11/05 00:00:26;;;;;;;16.42;14.07;;;6.50;99.90;;;;;;5116914;28;20187;-66
2021/11/05 00:02:57;;;;;;;16.98;14.32;;;6.50;99.90;;;;;;5116373;28;20213;-66
2021/11/05 00:05:25;;;;;;;16.90;14.35;;;6.40;99.90;;;;;;5117711;28;20179;-66
2021/11/05 00:07:51;;;;;;;17.02;13.88;;;6.40;99.90;;;;;;5117960;28;20210;-66
2021/11/05 00:10:19;;;;;;;16.15;14.45;;;6.50;99.90;;;;;;5117512;28;20203;-67
2021/11/05 00:12:46;;;;;;;17.83;14.23;;;6.50;99.90;;;;;;5116698;28;20187;-67
2021/11/05 00:15:13;;;;;;;15.93;13.68;;;6.40;99.90;;;;;;5116620;28;20207;-67
2021/11/05 00:17:39;;;;;;;17.15;14.07;;;6.40;99.90;;;;;;5116752;28;20190;-66
2021/11/05 00:20:07;;;;;;;19.58;14.13;;;6.40;99.90;;;;;;5116682;28;20541;-67
2021/11/05 00:22:34;;;;;;;22.13;14.45;;;6.40;99.90;;;;;;5116613;28;20190;-66
2021/11/05 00:25:06;;;;;;;17.77;14.73;;;6.40;99.90;;;;;;5116005;28;20202;-66
2021/11/05 00:27:34;;;;;;;16.80;14.90;;;6.30;99.90;;;;;;5116456;28;20190;-67
2021/11/05 00:30:04;;;;;;;18.55;15.23;;;6.30;99.90;;;;;;5116615;28;20273;-66
2021/11/05 00:32:31;;;;;;;21.30;16.85;;;6.30;99.90;;;;;;5116708;28;20191;-66
2021/11/05 00:34:57;;;;;;;18.30;15.80;;;6.30;99.90;;;;;;5116290;28;20631;-66
2021/11/05 00:37:23;;;;;;;21.38;14.25;;;6.30;99.90;;;;;;5116135;28;20606;-66
2021/11/05 00:39:50;;;;;;;24.70;16.35;;;6.30;99.90;;;;;;5116255;28;20590;-66
2021/11/05 00:42:16;;;;;;;17.92;15.95;;;6.30;99.90;;;;;;5116139;28;20198;-66
2021/11/05 00:44:43;;;;;;;20.55;15.60;;;6.30;99.90;;;;;;5116387;28;20194;-67
2021/11/05 00:47:10;;;;;;;18.40;15.80;;;6.20;99.90;;;;;;5116335;28;20645;-68
2021/11/05 00:49:36;;;;;;;18.05;13.75;;;6.20;99.90;;;;;;5116155;28;20183;-68
2021/11/05 00:52:03;;;;;;;18.10;15.93;;;6.30;99.90;;;;;;5116342;28;20187;-67
2021/11/05 00:54:30;;;;;;;21.58;16.75;;;6.20;99.90;;;;;;5115889;28;20225;-68
2021/11/05 00:56:56;;;;;;;17.90;14.93;;;6.20;99.90;;;;;;5116324;28;20187;-67
2021/11/05 00:59:22;;;;;;;17.10;15.30;;;6.30;99.90;;;;;;5116251;28;20179;-67
2021/11/05 01:01:49;;;;;;;19.98;15.85;;;6.30;99.90;;;;;;5116074;28;20190;-67
2021/11/05 01:04:15;;;;;;;19.33;14.45;;;6.30;99.90;;;;;;5097076;28;20201;-67
2021/11/05 01:06:42;;;;;;;17.20;15.30;;;6.30;99.90;;;;;;5116055;28;20191;-67
2021/11/05 01:09:10;;;;;;;23.25;14.48;;;6.30;99.90;;;;;;5116138;28;20197;-67
2021/11/05 01:11:36;;;;;;;20.40;15.93;;;6.30;99.90;;;;;;5097989;28;20198;-67
2021/11/05 01:14:03;;;;;;;19.33;15.57;;;6.30;99.90;;;;;;5116423;28;20689;-67
2021/11/05 01:16:29;;;;;;;15.88;13.63;;;6.30;99.90;;;;;;5115829;28;20572;-68
2021/11/05 01:18:56;;;;;;;17.35;14.48;;;6.30;99.90;;;;;;5116809;28;20197;-67
2021/11/05 01:21:22;;;;;;;18.88;15.48;;;6.40;99.90;;;;;;5116131;28;20227;-67
2021/11/05 01:23:49;;;;;;;19.23;15.05;;;6.40;99.90;;;;;;5116455;28;20580;-67
2021/11/05 01:26:15;;;;;;;24.73;16.58;;;6.40;99.90;;;;;;5115855;28;20206;-67
2021/11/05 01:28:41;;;;;;;21.77;15.13;;;6.40;99.90;;;;;;5116542;28;20194;-68
2021/11/05 01:31:08;;;;;;;18.02;14.75;;;6.40;99.90;;;;;;5116758;28;20207;-67
2021/11/05 01:33:34;;;;;;;19.10;15.70;;;6.40;99.90;;;;;;5116218;28;20226;-67
2021/11/05 01:36:01;;;;;;;20.83;15.38;;;6.40;99.90;;;;;;5116190;28;20565;-67
2021/11/05 01:38:27;;;;;;;16.48;14.75;;;6.40;99.90;;;;;;5115986;28;20570;-67
2021/11/05 01:40:54;;;;;;;17.20;14.75;;;6.40;99.90;;;;;;5115596;28;20195;-67
2021/11/05 01:43:21;;;;;;;19.52;14.65;;;6.40;99.90;;;;;;5115882;28;20195;-67
2021/11/05 01:45:48;;;;;;;19.02;16.10;;;6.40;99.90;;;;;;5115089;28;20214;-67
2021/11/05 01:48:15;;;;;;;19.50;15.13;;;6.40;99.90;;;;;;5114767;28;20216;-67
2021/11/05 01:50:42;;;;;;;23.33;17.27;;;6.40;99.90;;;;;;5114862;28;20596;-68
2021/11/05 01:53:10;;;;;;;22.83;17.60;;;6.40;99.90;;;;;;5114792;28;20214;-68
2021/11/05 01:55:36;;;;;;;17.40;14.52;;;6.40;99.90;;;;;;5115163;28;20557;-68
2021/11/05 01:58:03;;;;;;;20.67;14.88;;;6.40;99.90;;;;;;5115022;28;20672;-67
2021/11/05 02:00:31;;;;;;;19.90;15.70;;;6.40;99.90;;;;;;5114692;28;20191;-67
2021/11/05 02:02:58;;;;;;;19.30;16.45;;;6.40;99.90;;;;;;5114768;28;20479;-67
2021/11/05 02:05:24;;;;;;;17.00;14.98;;;6.40;99.90;;;;;;5114860;28;20198;-67
2021/11/05 02:07:53;;;;;;;19.90;15.88;;;6.40;99.90;;;;;;5115076;28;20194;-67
2021/11/05 02:10:22;;;;;;;19.17;14.32;;;6.40;99.90;;;;;;5115106;28;20199;-67
2021/11/05 02:12:49;;;;;;;17.73;14.15;;;6.40;99.90;;;;;;5115139;28;20182;-67
2021/11/05 02:15:16;;;;;;;16.80;15.00;;;6.40;99.90;;;;;;5114860;28;20226;-67
2021/11/05 02:17:45;;;;;;;20.63;15.98;;;6.40;99.90;;;;;;5114914;28;20196;-67
2021/11/05 02:20:16;;;;;;;17.95;14.02;;;6.40;99.90;;;;;;5115326;28;20195;-67
2021/11/05 02:22:42;;;;;;;18.17;15.10;;;6.40;99.90;;;;;;5114719;28;20206;-68
2021/11/05 02:25:11;;;;;;;16.90;14.60;;;6.40;99.90;;;;;;5116059;28;20289;-67
2021/11/05 02:27:38;;;;;;;17.83;15.93;;;6.40;99.90;;;;;;5114774;28;20202;-67
2021/11/05 02:30:07;;;;;;;20.52;14.55;;;6.40;99.90;;;;;;5114778;28;20274;-67
2021/11/05 02:32:39;;;;;;;18.05;15.90;;;6.40;99.90;;;;;;5114710;28;20600;-67
2021/11/05 02:35:06;;;;;;;19.52;15.13;;;6.40;99.90;;;;;;5114133;28;20234;-67
2021/11/05 02:37:33;;;;;;;23.63;15.73;;;6.40;99.90;;;;;;5114452;28;20187;-68
2021/11/05 02:40:01;;;;;;;17.48;15.60;;;6.40;99.90;;;;;;5114397;28;20191;-67
2021/11/05 02:42:27;;;;;;;19.13;15.63;;;6.40;99.90;;;;;;5095961;28;20201;-67
2021/11/05 02:44:54;;;;;;;20.02;16.08;;;6.40;99.90;;;;;;5114733;28;20650;-67
2021/11/05 02:47:24;;;;;;;19.88;15.27;;;6.40;99.90;;;;;;5114530;28;20213;-67
2021/11/05 02:49:57;;;;;;;22.98;14.88;;;6.40;99.90;;;;;;5113528;28;20693;-68
2021/11/05 02:52:24;;;;;;;17.08;14.77;;;6.40;99.90;;;;;;5114773;28;20616;-68
2021/11/05 02:54:50;;;;;;;18.33;15.75;;;6.50;99.90;;;;;;5114047;28;20241;-67
2021/11/05 02:57:17;;;;;;;17.55;14.98;;;6.50;99.90;;;;;;5114750;28;20199;-67
2021/11/05 02:59:43;;;;;;;16.55;14.73;;;6.40;99.90;;;;;;5114976;28;20191;-68
2021/11/05 03:02:10;;;;;;;18.70;14.45;;;6.50;99.90;;;;;;5114534;28;20209;-68
2021/11/05 03:04:37;;;;;;;17.35;14.45;;;6.50;99.90;;;;;;5114427;28;20191;-68
2021/11/05 03:07:07;;;;;;;18.40;15.38;;;6.50;99.90;;;;;;5114584;28;20217;-67
2021/11/05 03:09:39;;;;;;;17.77;14.27;;;6.50;99.90;;;;;;5115453;28;20653;-67
2021/11/05 03:12:08;;;;;;;17.60;15.00;;;6.50;99.90;;;;;;5096490;28;20190;-67
2021/11/05 03:14:35;;;;;;;16.77;14.38;;;6.50;99.90;;;;;;5114569;28;20205;-68
2021/11/05 03:17:01;;;;;;;19.58;13.82;;;6.50;99.90;;;;;;5114661;28;20278;-68
2021/11/05 03:19:27;;;;;;;17.70;14.63;;;6.50;99.90;;;;;;5114888;28;20187;-67
2021/11/05 03:21:54;;;;;;;17.67;14.75;;;6.50;99.90;;;;;;5115053;28;20191;-67
2021/11/05 03:24:20;;;;;;;17.45;13.82;;;6.50;99.90;;;;;;5096710;28;20288;-67
2021/11/05 03:26:47;;;;;;;21.00;14.70;;;6.50;99.90;;;;;;5115230;28;20206;-67
2021/11/05 03:29:14;;;;;;;18.80;14.73;;;6.40;99.90;;;;;;5114249;28;20218;-67
2021/11/05 03:31:42;;;;;;;16.02;14.35;;;6.50;99.90;;;;;;5114540;28;20195;-67
2021/11/05 03:34:10;;;;;;;16.17;14.48;;;6.50;99.90;;;;;;5115003;28;20222;-67
2021/11/05 03:36:36;;;;;;;20.92;15.20;;;6.50;99.90;;;;;;5114887;28;20194;-68
2021/11/05 03:39:05;;;;;;;16.40;13.68;;;6.50;99.90;;;;;;5117651;28;20202;-68
2021/11/05 03:41:31;;;;;;;17.50;13.98;;;6.50;99.90;;;;;;5118473;28;20191;-68
2021/11/05 03:43:58;;;;;;;19.73;15.90;;;6.50;99.90;;;;;;5117985;28;20206;-67
2021/11/05 03:46:25;;;;;;;15.60;13.90;;;6.50;99.90;;;;;;5117892;28;20676;-67
2021/11/05 03:48:51;;;;;;;16.02;13.35;;;6.60;99.90;;;;;;5118024;28;20195;-67
2021/11/05 03:51:22;;;;;;;18.70;14.80;;;6.50;99.90;;;;;;5117960;28;20689;-67
2021/11/05 03:53:48;;;;;;;16.23;13.65;;;6.50;99.90;;;;;;5117404;28;20693;-67
2021/11/05 03:56:15;;;;;;;17.95;15.10;;;6.60;99.90;;;;;;5118153;28;20213;-67
2021/11/05 03:58:41;;;;;;;15.45;13.35;;;6.60;99.90;;;;;;5117480;28;20199;-67
2021/11/05 04:01:08;;;;;;;18.80;14.43;;;6.60;99.90;;;;;;5117122;28;20194;-67
2021/11/05 04:03:34;;;;;;;15.27;13.48;;;6.60;99.90;;;;;;5110896;28;20211;-67
2021/11/05 04:06:00;;;;;;;16.77;14.30;;;6.60;99.90;;;;;;5098940;28;20591;-67
2021/11/05 04:08:27;;;;;;;14.95;13.35;;;6.60;99.90;;;;;;5110183;28;20193;-67
2021/11/05 04:10:53;;;;;;;16.42;14.70;;;6.60;99.90;;;;;;5116566;28;20193;-67
2021/11/05 04:13:21;;;;;;;16.80;14.00;;;6.60;99.90;;;;;;5116691;28;20546;-67
2021/11/05 04:15:47;;;;;;;18.80;13.77;;;6.60;99.90;;;;;;5116721;28;20536;-67
2021/11/05 04:18:13;;;;;;;16.75;13.60;;;6.60;99.90;;;;;;5116756;28;20198;-68
2021/11/05 04:20:40;;;;;;;18.58;14.23;;;6.60;99.90;;;;;;5116672;28;20198;-68
2021/11/05 04:23:07;;;;;;;13.80;12.15;;;6.60;99.90;;;;;;5116119;28;20206;-68
2021/11/05 04:25:34;;;;;;;19.20;15.73;;;6.60;99.90;;;;;;5116694;28;20210;-68
2021/11/05 04:28:03;;;;;;;18.63;14.55;;;6.60;99.90;;;;;;5116460;28;20218;-68
2021/11/05 04:30:29;;;;;;;15.23;13.63;;;6.60;99.90;;;;;;5116843;28;20203;-68
2021/11/05 04:32:55;;;;;;;17.48;14.32;;;6.60;99.90;;;;;;5117185;28;20191;-68
2021/11/05 04:35:22;;;;;;;21.25;16.30;;;6.60;99.90;;;;;;5117375;28;20642;-68
2021/11/05 04:37:48;;;;;;;19.98;15.57;;;6.60;99.90;;;;;;5116147;28;20190;-66
2021/11/05 04:40:15;;;;;;;16.42;14.73;;;6.60;99.90;;;;;;5115611;28;20651;-66
2021/11/05 04:42:41;;;;;;;18.17;14.13;;;6.60;99.90;;;;;;5115576;28;20191;-66
2021/11/05 04:45:08;;;;;;;18.67;15.55;;;6.60;99.90;;;;;;5097334;28;20198;-66
2021/11/05 04:47:34;;;;;;;21.70;14.43;;;6.60;99.90;;;;;;5115127;28;20211;-66
2021/11/05 04:50:01;;;;;;;18.23;14.70;;;6.60;99.90;;;;;;5114923;28;20230;-66
2021/11/05 04:52:29;;;;;;;15.98;14.27;;;6.60;99.90;;;;;;5114697;28;20198;-66
2021/11/05 04:54:55;;;;;;;20.83;14.32;;;6.60;99.90;;;;;;5115375;28;20222;-66
2021/11/05 04:57:23;;;;;;;17.67;14.05;;;6.60;99.90;;;;;;5115378;28;20218;-66
2021/11/05 04:59:50;;;;;;;16.38;14.65;;;6.60;99.90;;;;;;5114687;28;20658;-66
2021/11/05 05:02:17;;;;;;;16.05;14.30;;;6.60;99.90;;;;;;5115126;28;20194;-66
2021/11/05 05:04:45;;;;;;;19.10;15.88;;;6.60;99.90;;;;;;5115224;28;20194;-66
2021/11/05 05:07:13;;;;;;;18.77;16.52;;;6.60;99.90;;;;;;5115971;28;20210;-67
2021/11/05 05:09:39;;;;;;;17.98;14.10;;;6.60;99.90;;;;;;5116268;28;20198;-67
2021/11/05 05:12:07;;;;;;;17.80;13.63;;;6.60;99.90;;;;;;5098101;28;20210;-67
2021/11/05 05:14:33;;;;;;;21.92;15.15;;;6.60;99.90;;;;;;5115831;28;20570;-68
2021/11/05 05:17:00;;;;;;;18.88;15.50;;;6.70;99.90;;;;;;5097181;28;20199;-68
2021/11/05 05:19:26;;;;;;;17.58;14.35;;;6.70;99.90;;;;;;5115266;28;20597;-67
2021/11/05 05:21:52;;;;;;;23.48;15.32;;;6.70;99.90;;;;;;5116129;28;20337;-67
2021/11/05 05:24:19;;;;;;;17.27;13.85;;;6.60;99.90;;;;;;5115721;28;20658;-68
2021/11/05 05:26:45;;;;;;;19.17;14.27;;;6.70;99.90;;;;;;5117190;28;20195;-68
2021/11/05 05:29:11;;;;;;;20.73;17.10;;;6.60;99.90;;;;;;5117360;28;20650;-68
2021/11/05 05:31:38;;;;;;;34.30;30.60;;;6.60;99.90;;;;;;5114988;28;20222;-67
2021/11/05 05:34:04;;;;;;;24.50;18.77;;;6.60;99.90;;;;;;5115672;28;20230;-67
2021/11/05 05:36:30;;;;;;;51.03;39.70;;;6.60;99.90;;;;;;5115384;28;20194;-68
2021/11/05 05:38:57;;;;;;;24.88;17.88;;;6.60;99.90;;;;;;5115186;28;20187;-68
2021/11/05 05:41:23;;;;;;;21.10;18.35;;;6.60;99.90;;;;;;5097023;28;20194;-67
2021/11/05 05:43:49;;;;;;;16.60;14.60;;;6.60;99.90;;;;;;5114817;28;20191;-68
2021/11/05 05:46:16;;;;;;;18.13;14.35;;;6.60;99.90;;;;;;5115280;28;20195;-68
2021/11/05 05:48:42;;;;;;;23.02;18.40;;;6.60;99.90;;;;;;5115261;28;20197;-68
2021/11/05 05:51:08;;;;;;;19.08;15.85;;;6.60;99.90;;;;;;5115005;28;20226;-68
2021/11/05 05:53:35;;;;;;;19.08;14.98;;;6.60;99.90;;;;;;5114864;28;20205;-68
2021/11/05 05:56:01;;;;;;;19.73;15.50;;;6.60;99.90;;;;;;5114630;28;20240;-67
2021/11/05 05:58:27;;;;;;;16.92;14.30;;;6.60;99.90;;;;;;5115040;28;20197;-67
2021/11/05 06:00:54;;;;;;;19.00;14.15;;;6.60;99.90;;;;;;5114217;28;20192;-67
2021/11/05 06:03:21;;;;;;;17.70;15.40;;;6.60;99.90;;;;;;5114235;28;20209;-68
2021/11/05 06:05:47;;;;;;;17.77;15.48;;;6.60;99.90;;;;;;5114250;28;20214;-68
2021/11/05 06:08:16;;;;;;;17.80;15.52;;;6.60;99.90;;;;;;5114444;28;20282;-68
2021/11/05 06:10:42;;;;;;;20.85;14.75;;;6.60;99.90;;;;;;5114445;28;20650;-68
2021/11/05 06:13:09;;;;;;;21.80;14.80;;;6.50;99.90;;;;;;5114838;28;20195;-67
2021/11/05 06:15:35;;;;;;;18.85;15.50;;;6.50;99.90;;;;;;5114719;28;20234;-67
2021/11/05 06:18:02;;;;;;;19.88;15.45;;;6.50;99.90;;;;;;5114883;28;20194;-67
2021/11/05 06:20:28;;;;;;;17.95;14.82;;;6.50;99.90;;;;;;5096570;28;20595;-67
2021/11/05 06:22:55;;;;;;;21.77;17.95;;;6.50;99.90;;;;;;5113990;28;20204;-67
2021/11/05 06:25:21;;;;;;;21.83;16.25;;;6.50;99.90;;;;;;5114839;28;20194;-67
2021/11/05 06:27:48;;;;;;;20.48;18.27;;;6.40;99.90;;;;;;5114591;28;20273;-66
2021/11/05 06:30:14;;;;;;;20.52;16.77;;;6.40;99.90;;;;;;5114288;28;20257;-67
2021/11/05 06:32:41;;;;;;;23.50;18.20;;;6.50;99.90;;;;;;5095493;28;20657;-67
2021/11/05 06:35:09;;;;;;;23.85;18.10;;;6.40;99.90;;;;;;5115333;28;20209;-67
2021/11/05 06:37:37;;;;;;;19.27;15.80;;;6.60;99.90;;;;;;5113292;28;20714;-67
2021/11/05 06:40:08;;;;;;;21.88;19.50;;;6.60;99.90;;;;;;5114715;28;20202;-67
2021/11/05 06:42:34;;;;;;;22.55;18.50;;;6.60;99.90;;;;;;5097278;28;20210;-67
2021/11/05 06:45:01;;;;;;;22.33;15.27;;;6.70;99.90;;;;;;5116370;28;20206;-67
2021/11/05 06:47:27;;;;;;;18.60;15.20;;;6.70;99.90;;;;;;5117169;28;20297;-68
2021/11/05 06:49:54;;;;;;;16.60;14.60;;;6.60;99.90;;;;;;5116704;28;20230;-67
2021/11/05 06:52:20;;;;;;;15.50;13.90;;;6.70;99.90;;;;;;5115381;28;20235;-67
2021/11/05 06:54:47;;;;;;;17.67;14.88;;;6.70;99.90;;;;;;5113985;28;20859;-67
2021/11/05 06:57:13;;;;;;;18.00;14.48;;;6.70;99.90;;;;;;5095350;28;20205;-67
2021/11/05 06:59:41;;;;;;;19.05;14.38;;;6.70;99.90;;;;;;5113744;28;20209;-67
2021/11/05 07:02:07;;;;;;;21.08;14.02;;;6.70;99.90;;;;;;5114335;28;20195;-67
2021/11/05 07:04:33;;;;;;;15.10;13.55;;;6.70;99.90;;;;;;5114043;28;20664;-68
2021/11/05 07:07:02;;;;;;;16.27;14.57;;;6.70;99.90;;;;;;5113925;28;20190;-67
2021/11/05 07:09:28;;;;;;;16.20;14.60;;;6.70;99.90;;;;;;5115033;28;20638;-67
2021/11/05 07:11:55;;;;;;;19.65;14.77;;;6.70;99.90;;;;;;5098803;28;20642;-68
2021/11/05 07:14:21;;;;;;;20.33;13.90;;;6.70;99.90;;;;;;5117713;28;20226;-67
2021/11/05 07:16:48;;;;;;;17.55;14.75;;;6.80;99.90;;;;;;5120148;28;20190;-67
2021/11/05 07:19:14;;;;;;;15.73;13.82;;;6.80;99.90;;;;;;5117985;28;20183;-68
2021/11/05 07:21:41;;;;;;;17.15;15.00;;;6.80;99.90;;;;;;5118389;28;20214;-67
2021/11/05 07:24:08;;;;;;;15.38;13.73;;;6.80;99.90;;;;;;5105997;28;20195;-67
2021/11/05 07:26:46;;;;;;;15.18;13.27;;;6.90;99.90;;;;;;5117339;28;20657;-68
2021/11/05 07:29:13;;;;;;;18.20;14.30;;;6.90;99.90;;;;;;5118317;28;20660;-68
2021/11/05 07:31:41;;;;;;;15.85;14.15;;;6.90;99.90;;;;;;5119298;28;20198;-68
2021/11/05 07:34:07;;;;;;;18.77;14.18;;;7.00;99.90;;;;;;5120637;28;20556;-68
2021/11/05 07:36:34;;;;;;;15.68;13.80;;;7.00;99.90;;;;;;5118206;28;20186;-68
2021/11/05 07:39:00;;;;;;;15.35;12.75;;;7.10;99.90;;;;;;5109317;28;20203;-68
2021/11/05 07:41:27;;;;;;;16.17;13.02;;;7.10;99.90;;;;;;5113323;28;20194;-68
2021/11/05 07:43:53;;;;;;;13.45;11.90;;;7.10;99.90;;;;;;5117436;28;20206;-68
2021/11/05 07:46:20;;;;;;;13.23;11.98;;;7.10;99.90;;;;;;5118877;28;20672;-68
2021/11/05 07:48:48;;;;;;;14.50;12.77;;;7.20;99.90;;;;;;5118412;28;20270;-68
2021/11/05 07:51:14;;;;;;;14.95;13.35;;;7.20;99.90;;;;;;5117245;28;20351;-68
2021/11/05 07:53:40;;;;;;;15.95;12.25;;;7.20;99.90;;;;;;5117452;28;20219;-68
2021/11/05 07:56:07;;;;;;;22.27;16.85;;;7.30;99.90;;;;;;5118078;28;20689;-68
2021/11/05 07:58:33;;;;;;;16.70;12.70;;;7.40;99.90;;;;;;5122025;28;20207;-68
2021/11/05 08:00:59;;;;;;;14.93;12.85;;;7.40;99.90;;;;;;5123363;28;20194;-68
2021/11/05 08:03:26;;;;;;;14.35;12.93;;;7.50;99.90;;;;;;5124718;28;20190;-68
2021/11/05 08:05:52;;;;;;;17.25;13.20;;;7.60;99.90;;;;;;5121674;28;20650;-68
2021/11/05 08:08:18;;;;;;;15.43;13.15;;;7.70;99.90;;;;;;5121505;28;20203;-68
2021/11/05 08:10:45;;;;;;;16.38;14.55;;;7.80;99.90;;;;;;5122804;28;20202;-68
2021/11/05 08:13:13;;;;;;;14.85;12.30;;;7.80;99.90;;;;;;5121066;28;20538;-68
2021/11/05 08:15:39;;;;;;;14.43;12.57;;;7.90;99.90;;;;;;5118899;28;20227;-68
2021/11/05 08:18:06;;;;;;;15.20;13.60;;;7.80;99.90;;;;;;5117970;28;20190;-68
2021/11/05 08:20:32;;;;;;;13.82;12.40;;;7.80;99.90;;;;;;5120319;28;20193;-68
2021/11/05 08:22:58;;;;;;;15.15;12.07;;;7.70;99.90;;;;;;5120715;28;20186;-68
2021/11/05 08:25:27;;;;;;;15.13;12.65;;;7.80;99.90;;;;;;5119957;28;20205;-68
2021/11/05 08:27:53;;;;;;;13.30;11.98;;;7.80;99.90;;;;;;5120671;28;20202;-68
2021/11/05 08:30:22;;;;;;;13.80;12.48;;;7.90;99.90;;;;;;5118724;28;20213;-68
2021/11/05 08:32:50;;;;;;;14.07;12.10;;;7.90;99.90;;;;;;5119814;28;20267;-68
2021/11/05 08:35:18;;;;;;;14.85;12.82;;;7.90;99.90;;;;;;5121962;28;20219;-68
2021/11/05 08:37:44;;;;;;;16.55;13.80;;;7.90;99.90;;;;;;5118735;28;20198;-68
2021/11/05 08:40:11;;;;;;;12.80;11.32;;;8.00;99.90;;;;;;5118937;28;20262;-68
2021/11/05 08:42:38;;;;;;;14.43;12.93;;;8.10;99.90;;;;;;5120519;28;20716;-68
2021/11/05 08:45:07;;;;;;;13.45;12.15;;;8.10;99.90;;;;;;5119913;28;20211;-68
2021/11/05 08:47:36;;;;;;;13.13;11.70;;;8.10;99.90;;;;;;5117387;28;20190;-68
2021/11/05 08:50:06;;;;;;;16.20;11.75;;;8.10;99.90;;;;;;5116519;28;20227;-68
2021/11/05 08:52:33;;;;;;;13.20;10.90;;;8.20;99.90;;;;;;5117935;28;20202;-68
2021/11/05 08:55:05;;;;;;;14.40;11.20;;;8.30;99.90;;;;;;5120204;28;20692;-68
2021/11/05 08:57:35;;;;;;;13.70;12.43;;;8.40;99.90;;;;;;5121075;28;20642;-68
2021/11/05 09:00:06;;;;;;;13.57;11.57;;;8.30;99.90;;;;;;5118406;28;20175;-68
2021/11/05 09:02:32;;;;;;;14.27;12.05;;;8.40;99.90;;;;;;5120229;28;20377;-68
2021/11/05 09:04:59;;;;;;;12.27;10.85;;;8.50;99.90;;;;;;5120690;28;20198;-68
2021/11/05 09:07:27;;;;;;;13.00;11.57;;;8.60;99.90;;;;;;5119055;28;20186;-68
2021/11/05 09:09:56;;;;;;;17.90;11.13;;;8.70;99.90;;;;;;5119071;28;20186;-68
2021/11/05 09:12:22;;;;;;;15.95;11.38;;;8.70;99.90;;;;;;5120533;28;20673;-68
2021/11/05 09:14:49;;;;;;;11.60;10.40;;;8.70;99.90;;;;;;5117468;28;20245;-68
2021/11/05 09:17:18;;;;;;;10.32;9.35;;;8.70;99.90;;;;;;5117199;28;20187;-68
2021/11/05 09:19:45;;;;;;;11.23;10.13;;;8.60;99.90;;;;;;5117400;28;20218;-68
2021/11/05 09:22:12;;;;;;;12.30;11.00;;;8.70;99.90;;;;;;5099507;28;20202;-68
2021/11/05 09:24:39;;;;;;;13.00;10.68;;;8.60;99.90;;;;;;5118501;28;20246;-68
2021/11/05 09:27:05;;;;;;;13.20;11.75;;;8.70;99.90;;;;;;5118160;28;20183;-66
2021/11/05 09:29:31;;;;;;;12.25;10.07;;;8.80;99.90;;;;;;5117708;28;20206;-68
2021/11/05 09:31:58;;;;;;;12.85;11.05;;;8.70;99.90;;;;;;5117526;28;20193;-66
2021/11/05 09:34:24;;;;;;;11.68;10.57;;;8.70;99.90;;;;;;5117349;28;20194;-66
2021/11/05 09:36:50;;;;;;;13.45;11.15;;;8.70;99.90;;;;;;5116242;28;20210;-67
2021/11/05 09:39:17;;;;;;;11.95;10.73;;;8.90;99.90;;;;;;5116822;28;20194;-66
2021/11/05 09:41:44;;;;;;;11.30;10.20;;;9.10;99.90;;;;;;5118562;28;20205;-67
2021/11/05 09:44:10;;;;;;;15.75;10.75;;;9.10;99.90;;;;;;5117252;28;20278;-67
2021/11/05 09:46:37;;;;;;;11.73;10.50;;;9.10;99.90;;;;;;5120423;28;20218;-67
2021/11/05 09:49:04;;;;;;;10.75;9.02;;;9.10;99.90;;;;;;5120572;28;20216;-67
2021/11/05 09:51:31;;;;;;;14.38;10.57;;;9.20;99.90;;;;;;5121223;28;20249;-67
2021/11/05 09:54:01;;;;;;;12.50;10.75;;;9.20;99.90;;;;;;5117397;28;20305;-67
2021/11/05 09:56:29;;;;;;;10.93;9.90;;;9.20;99.90;;;;;;5118698;28;20231;-68
2021/11/05 09:58:55;;;;;;;10.45;9.48;;;9.20;99.90;;;;;;5118590;28;20545;-67
2021/11/05 10:01:22;;;;;;;10.90;9.80;;;9.30;99.90;;;;;;5117439;28;20240;-67
2021/11/05 10:03:48;;;;;;;11.15;10.05;;;9.30;99.90;;;;;;5114745;28;20202;-67
2021/11/05 10:06:19;;;;;;;11.07;10.00;;;9.40;99.90;;;;;;5102975;28;20203;-67
2021/11/05 10:08:51;;;;;;;11.73;10.57;;;9.60;99.90;;;;;;5115883;28;20210;-67
2021/11/05 10:11:23;;;;;;;10.20;9.27;;;9.70;99.90;;;;;;5116680;28;20211;-67
2021/11/05 10:13:49;;;;;;;10.23;9.23;;;9.70;99.90;;;;;;5117399;28;20190;-67
2021/11/05 10:16:19;;;;;;;11.25;10.10;;;9.70;99.90;;;;;;5101054;28;20230;-67
2021/11/05 10:19:06;;;;;;;10.75;9.35;;;9.70;99.90;;;;;;5118700;28;20201;-67
2021/11/05 10:21:45;;;;;;;17.42;10.90;;;9.70;99.90;;;;;;5116356;28;20191;-67
2021/11/05 10:24:14;;;;;;;16.92;13.18;;;9.70;99.90;;;;;;5114921;28;20209;-66
2021/11/05 10:26:41;;;;;;;13.75;11.73;;;9.60;99.90;;;;;;5117506;28;20199;-67
2021/11/05 10:29:23;;;;;;;21.52;13.50;;;9.80;99.90;;;;;;5117943;28;20658;-67
2021/11/05 10:32:03;;;;;;;16.05;11.50;;;10.00;99.90;;;;;;5098266;28;20211;-67
2021/11/05 10:34:49;;;;;;;20.17;11.48;;;10.20;99.90;;;;;;5117350;28;20198;-66
2021/11/05 10:37:27;;;;;;;12.75;10.63;;;10.40;99.90;;;;;;5120196;28;20187;-68
2021/11/05 10:39:56;;;;;;;14.57;10.55;;;10.60;99.90;;;;;;5123583;28;20205;-68
2021/11/05 10:42:34;;;;;;;18.77;9.43;;;10.70;99.90;;;;;;5118577;28;20215;-68
2021/11/05 10:45:12;;;;;;;10.52;9.35;;;10.70;99.90;;;;;;5115265;28;20194;-67
2021/11/05 10:47:53;;;;;;;9.68;8.68;;;10.60;99.90;;;;;;5113412;28;20642;-67
2021/11/05 10:50:22;;;;;;;11.10;9.90;;;10.50;99.90;;;;;;5093110;28;20223;-68
2021/11/05 10:53:19;;;;;;;9.85;8.93;;;10.40;99.90;;;;;;5095102;28;20282;-67
2021/11/05 10:55:52;;;;;;;17.85;9.05;;;10.60;99.90;;;;;;5078160;28;20705;-67
2021/11/05 10:58:24;;;;;;;11.35;10.02;;;10.60;99.90;;;;;;5095308;28;20168;-67
2021/11/05 11:00:55;;;;;;;10.50;9.27;;;10.50;99.90;;;;;;5096507;28;20199;-67
2021/11/05 11:03:31;;;;;;;29.45;11.88;;;10.50;99.90;;;;;;5101260;28;20210;-67
2021/11/05 11:06:04;;;;;;;23.23;12.15;;;10.60;99.90;;;;;;5114148;28;20229;-67
2021/11/05 11:08:34;;;;;;;20.98;11.52;;;10.50;99.90;;;;;;5100084;28;20194;-67
2021/11/05 11:11:17;;;;;;;11.00;9.90;;;10.40;99.90;;;;;;5114560;28;20225;-67
2021/11/05 11:13:44;;;;;;;10.70;9.70;;;10.30;99.90;;;;;;5114298;28;20665;-67
2021/11/05 11:16:18;;;;;;;12.15;10.88;;;10.30;99.90;;;;;;5114806;28;20214;-67
2021/11/05 11:18:49;;;;;;;14.38;10.57;;;10.30;99.90;;;;;;5114439;28;20224;-67
2021/11/05 11:21:17;;;;;;;10.52;9.43;;;10.20;99.90;;;;;;5114107;28;20210;-67
2021/11/05 11:23:44;;;;;;;10.77;9.52;;;10.30;99.90;;;;;;5114177;28;20207;-67
2021/11/05 11:26:12;;;;;;;12.18;10.95;;;10.30;99.90;;;;;;5114865;28;20198;-67
2021/11/05 11:28:38;;;;;;;14.85;11.98;;;10.30;99.90;;;;;;5095737;28;20211;-67
2021/11/05 11:31:05;;;;;;;12.38;11.10;;;10.30;99.90;;;;;;5114285;28;20190;-67
2021/11/05 11:33:32;;;;;;;13.65;11.23;;;10.20;99.90;;;;;;5114632;28;20209;-68
2021/11/05 11:35:59;;;;;;;15.75;12.55;;;10.20;99.90;;;;;;5113654;28;20230;-67
2021/11/05 11:38:26;;;;;;;11.82;10.38;;;10.10;99.90;;;;;;5115349;28;20642;-68
2021/11/05 11:40:53;;;;;;;11.80;10.30;;;10.10;99.90;;;;;;5114738;28;20190;-68
2021/11/05 11:43:21;;;;;;;17.92;11.70;;;10.10;99.90;;;;;;5117809;28;20552;-68
2021/11/05 11:45:51;;;;;;;11.45;10.25;;;10.10;99.90;;;;;;5117697;28;20506;-67
2021/11/05 11:48:50;;;;;;;18.88;16.70;;;10.10;99.90;;;;;;5116433;28;20206;-67
2021/11/05 11:51:42;;;;;;;14.98;12.55;;;10.20;99.90;;;;;;5117219;28;20231;-67
2021/11/05 11:54:08;;;;;;;11.95;10.75;;;10.20;99.90;;;;;;5116019;28;20218;-67
2021/11/05 11:56:38;;;;;;;9.95;9.02;;;10.20;99.90;;;;;;5111618;28;20750;-68
2021/11/05 11:59:07;;;;;;;16.60;10.82;;;10.40;99.90;;;;;;5104968;28;20213;-68
2021/11/05 12:01:38;;;;;;;11.50;10.50;;;10.40;99.90;;;;;;5119176;28;20231;-68
2021/11/05 12:04:16;;;;;;;11.52;10.38;;;10.30;99.90;;;;;;5118665;28;20213;-68
2021/11/05 12:06:46;;;;;;;22.30;11.48;;;10.30;99.90;;;;;;5120429;28;20589;-67
2021/11/05 12:09:22;;;;;;;17.85;10.90;;;10.40;99.90;;;;;;5118407;28;20653;-67
2021/11/05 12:11:49;;;;;;;10.27;9.25;;;10.80;99.90;;;;;;5107163;28;20217;-67
2021/11/05 12:14:16;;;;;;;11.93;10.15;;;11.10;99.90;;;;;;5119098;28;20645;-67
2021/11/05 12:17:04;;;;;;;10.90;9.88;;;11.80;99.90;;;;;;5119805;28;20230;-67
2021/11/05 12:19:34;;;;;;;10.10;9.10;;;12.20;99.90;;;;;;5121515;28;20555;-68
2021/11/05 12:22:16;;;;;;;7.97;7.37;;;12.40;99.90;;;;;;5121156;28;20547;-67
2021/11/05 12:24:47;;;;;;;7.83;7.13;;;12.90;99.90;;;;;;5123672;28;20612;-67
2021/11/05 12:27:25;;;;;;;12.70;8.50;;;13.40;99.90;;;;;;5103886;28;20620;-68
2021/11/05 12:30:00;;;;;;;8.00;7.30;;;13.80;99.90;;;;;;5118758;28;20623;-68
2021/11/05 12:32:31;;;;;;;8.70;7.90;;;13.60;99.90;;;;;;5118153;28;20742;-68
2021/11/05 12:35:06;;;;;;;7.90;7.30;;;13.80;99.90;;;;;;5105654;28;20608;-68
2021/11/05 12:37:57;;;;;;;8.00;7.20;;;13.60;99.90;;;;;;5120855;28;20647;-68
2021/11/05 12:40:31;;;;;;;11.40;7.80;;;13.40;99.90;;;;;;5108574;28;20612;-68